Madeira — 9HAA9 — position and weather

sailwx.info

Track history (hours):
 
Tides and Currents Weather Stations Pressure Air Temp Water Temp Dewpoint Dewpoint Depression Visibility Wind Speed Wind Dir Waves Ship Positions

Madeira

Last reported at 2017-Dec-28 04:46 UTC. Time now 2018-Jan-18 15:25 UTC.
Position N 41°39' E 141°33'.
Warning: this ship's position is 21 days out of date.

Length 292 m; draft 11.3 m.

Type: Cargo ship. MMSI: 256668000.

Date/timePositionNaut miles runAvg speedWind from/ knotsBaromVisibWave heightAir tempDewpointWater temp
2017-Dec-28 04:46N 41°39' E 141°33'414.8
2017-Dec-28 04:29N 41°39' E 141°27'714.1
2017-Dec-28 04:00N 41°39' E 141°18'713.9
2017-Dec-28 03:30N 41°38' E 141°09'815.4
2017-Dec-28 03:00N 41°38' E 140°58'714.5
2017-Dec-28 02:30N 41°36' E 140°49'714.4
2017-Dec-28 02:00N 41°32' E 140°41'713.9
2017-Dec-28 01:30N 41°28' E 140°34'714.6
2017-Dec-28 01:00N 41°24' E 140°26'815.8
2017-Dec-28 00:30N 41°19' E 140°17'  
Track history (hours):
 
Tides and Currents Weather Stations Pressure Air Temp Water Temp Dewpoint Dewpoint Depression Visibility Wind Speed Wind Dir Waves Ship Positions

Madeira

Last reported at 2017-Dec-28 04:46 UTC. Time now 2018-Jan-18 15:25 UTC.
Position N 41°39' E 141°33'.
Warning: this ship's position is 21 days out of date.

Length 292 m; draft 11.3 m.

Type: Cargo ship. MMSI: 256668000.

Date/timePositionNaut miles runAvg speedWind from/ knotsBaromVisibWave heightAir tempDewpointWater temp
2017-Dec-28 04:46N 41°39' E 141°33'414.8
2017-Dec-28 04:29N 41°39' E 141°27'714.1
2017-Dec-28 04:00N 41°39' E 141°18'713.9
2017-Dec-28 03:30N 41°38' E 141°09'815.4
2017-Dec-28 03:00N 41°38' E 140°58'714.5
2017-Dec-28 02:30N 41°36' E 140°49'714.4
2017-Dec-28 02:00N 41°32' E 140°41'713.9
2017-Dec-28 01:30N 41°28' E 140°34'714.6
2017-Dec-28 01:00N 41°24' E 140°26'815.8
2017-Dec-28 00:30N 41°19' E 140°17'  

Dump ship's entire track history